Time;durP1;ratioP1;P1;durP2;ratioP2;P2;SDS_P1;SDS_P2;PMS_P1;PMS_P2;Temp;Humidity;BMP_temperature;BMP_pressure;BME280_temperature;BME280_humidity;BME280_pressure;Samples;Min_cycle;Max_cycle;Signal;HPM_P1;HPM_P2
2022/04/28 00:02:05;;;;;;;5.63;3.03;;;;;;;;;;5036620;28;20052;-71
2022/04/28 00:04:32;;;;;;;6.13;3.47;;;;;;;;;;5016166;28;20045;-72
2022/04/28 00:06:58;;;;;;;4.78;2.80;;;15.20;57.70;;;;;;5016598;28;20077;-71
2022/04/28 00:09:26;;;;;;;6.68;3.15;;;15.20;58.00;;;;;;5033912;28;20773;-71
2022/04/28 00:11:54;;;;;;;5.13;2.83;;;15.20;57.80;;;;;;5016487;28;20132;-71
2022/04/28 00:14:21;;;;;;;5.93;2.90;;;14.90;57.60;;;;;;5033693;28;20063;-71
2022/04/28 00:16:48;;;;;;;4.05;2.35;;;;;;;;;;5016329;28;20053;-71
2022/04/28 00:19:14;;;;;;;5.10;2.67;;;15.10;57.90;;;;;;5034680;28;20049;-71
2022/04/28 00:21:42;;;;;;;4.45;2.60;;;;;;;;;;5015887;28;20061;-71
2022/04/28 00:24:08;;;;;;;3.70;2.53;;;15.20;57.70;;;;;;5015951;28;20491;-71
2022/04/28 00:26:36;;;;;;;5.63;2.80;;;15.20;58.00;;;;;;5015939;28;20053;-71
2022/04/28 00:29:03;;;;;;;5.32;2.80;;;14.80;57.80;;;;;;5016176;28;20475;-71
2022/04/28 00:31:30;;;;;;;5.15;2.80;;;;;;;;;;5033706;28;20055;-71
2022/04/28 00:33:57;;;;;;;4.20;2.58;;;15.10;57.70;;;;;;5017213;28;20072;-71
2022/04/28 00:36:24;;;;;;;4.30;2.50;;;;;;;;;;5033237;28;20494;-71
2022/04/28 00:38:51;;;;;;;4.38;2.70;;;15.10;58.00;;;;;;5016086;28;20060;-71
2022/04/28 00:41:18;;;;;;;4.13;2.50;;;15.10;57.70;;;;;;5015531;28;20087;-71
2022/04/28 00:43:55;;;;;;;4.10;2.78;;;15.10;50.90;;;;;;5015646;28;20056;-71
2022/04/28 00:46:22;;;;;;;4.15;2.33;;;15.20;57.80;;;;;;5015842;28;20141;-71
2022/04/28 00:51:34;;;;;;;4.97;2.42;;;15.10;54.40;;;;;;5034294;28;20100;-71
2022/04/28 00:54:01;;;;;;;4.43;2.47;;;15.10;56.60;;;;;;5033157;28;20052;-71
2022/04/28 00:56:28;;;;;;;5.88;2.70;;;15.10;57.80;;;;;;5015164;28;20055;-71
2022/04/28 00:58:56;;;;;;;5.40;2.33;;;15.10;57.80;;;;;;5032935;28;20433;-71
2022/04/28 01:01:23;;;;;;;3.90;2.25;;;15.10;56.80;;;;;;5033115;28;20045;-71
2022/04/28 01:03:50;;;;;;;4.38;2.70;;;14.70;58.00;;;;;;5015193;28;20053;-71
2022/04/28 01:06:16;;;;;;;6.47;2.72;;;15.00;58.30;;;;;;5019316;28;20128;-71
2022/04/28 01:08:43;;;;;;;5.70;2.65;;;15.00;52.20;;;;;;5035243;28;20059;-71
2022/04/28 01:11:10;;;;;;;4.10;2.30;;;15.00;57.90;;;;;;5034828;28;20409;-71
2022/04/28 01:13:36;;;;;;;4.45;2.47;;;15.00;58.20;;;;;;5052836;28;20047;-71
2022/04/28 01:16:05;;;;;;;3.88;2.53;;;14.30;50.60;;;;;;5034973;28;20063;-71
2022/04/28 01:18:32;;;;;;;3.60;2.30;;;15.00;58.00;;;;;;5034819;28;20750;-71
2022/04/28 01:21:03;;;;;;;5.00;2.40;;;14.90;58.20;;;;;;5034457;28;20056;-71
2022/04/28 01:23:30;;;;;;;3.80;2.38;;;14.80;58.10;;;;;;5050939;28;20053;-71
2022/04/28 01:25:57;;;;;;;4.70;2.35;;;15.10;58.00;;;;;;5034781;28;20572;-71
2022/04/28 01:28:24;;;;;;;3.85;2.15;;;14.90;54.80;;;;;;5034462;28;20055;-71
2022/04/28 01:30:51;;;;;;;3.92;2.30;;;15.00;58.00;;;;;;5052559;28;20056;-71
2022/04/28 01:33:18;;;;;;;5.28;2.72;;;;;;;;;;5052321;28;20041;-71
2022/04/28 01:35:44;;;;;;;3.08;2.30;;;14.90;58.30;;;;;;5052377;28;20055;-72
2022/04/28 01:38:12;;;;;;;4.05;2.33;;;15.00;58.20;;;;;;5032846;28;20059;-71
2022/04/28 01:40:39;;;;;;;3.60;2.30;;;14.60;57.80;;;;;;5034198;28;20059;-71
2022/04/28 01:43:06;;;;;;;4.00;2.08;;;14.90;57.70;;;;;;5052215;28;20387;-71
2022/04/28 01:45:33;;;;;;;3.70;2.17;;;14.90;58.00;;;;;;5052019;28;20053;-71
2022/04/28 01:47:59;;;;;;;5.05;2.38;;;15.00;58.00;;;;;;5034252;28;20063;-71
2022/04/28 01:50:26;;;;;;;2.78;2.20;;;15.00;52.90;;;;;;5051932;28;20075;-71
2022/04/28 01:55:39;;;;;;;3.33;2.05;;;14.90;58.40;;;;;;5021021;28;20045;-71
2022/04/28 01:58:05;;;;;;;4.25;2.42;;;14.60;58.10;;;;;;5014701;28;20067;-71
2022/04/28 02:00:34;;;;;;;3.22;2.15;;;;;;;;;;5015238;28;20053;-71
2022/04/28 02:03:01;;;;;;;4.20;2.08;;;;;;;;;;5032075;28;20056;-71
2022/04/28 02:05:27;;;;;;;3.97;2.17;;;14.90;58.30;;;;;;5014113;28;20056;-71
2022/04/28 02:07:54;;;;;;;3.70;2.33;;;;;;;;;;5033672;28;20045;-71
2022/04/28 02:10:21;;;;;;;4.90;2.50;;;14.90;58.00;;;;;;5033978;28;20056;-71
2022/04/28 02:12:50;;;;;;;3.72;2.10;;;14.80;58.10;;;;;;5051708;28;20059;-71
2022/04/28 02:15:17;;;;;;;4.57;2.00;;;15.00;53.60;;;;;;5034052;28;20049;-71
2022/04/28 02:17:43;;;;;;;3.38;2.00;;;14.90;58.10;;;;;;5034182;28;20122;-71
2022/04/28 02:20:11;;;;;;;3.45;2.00;;;14.90;58.40;;;;;;5033616;28;20057;-71
2022/04/28 02:22:38;;;;;;;4.95;2.60;;;14.80;58.40;;;;;;5023520;28;20057;-71
2022/04/28 02:25:05;;;;;;;3.28;2.08;;;14.70;58.10;;;;;;5031809;28;20384;-71
2022/04/28 02:27:31;;;;;;;3.72;2.20;;;14.80;58.10;;;;;;5031598;28;20045;-71
2022/04/28 02:30:00;;;;;;;3.30;2.10;;;14.90;58.50;;;;;;5031482;28;20045;-71
2022/04/28 02:33:08;;;;;;;3.30;2.00;;;14.60;57.90;;;;;;5014002;28;20064;-71
2022/04/28 02:35:13;;;;;;;3.20;2.45;;;;;;;;;;5031291;28;20054;-71
2022/04/28 02:37:40;;;;;;;3.47;2.25;;;14.30;57.80;;;;;;5032162;28;20100;-71
2022/04/28 02:40:08;;;;;;;3.80;1.85;;;14.80;58.40;;;;;;5050597;28;20049;-71
2022/04/28 02:42:35;;;;;;;5.43;2.40;;;14.50;58.00;;;;;;5033781;28;20659;-71
2022/04/28 02:45:03;;;;;;;3.72;2.17;;;14.80;53.00;;;;;;5051040;28;20048;-71
2022/04/28 02:47:30;;;;;;;3.75;2.00;;;14.80;53.90;;;;;;5033789;28;20409;-71
2022/04/28 02:49:58;;;;;;;4.13;2.38;;;14.80;58.40;;;;;;5033182;28;20055;-71
2022/04/28 02:52:25;;;;;;;3.60;1.90;;;14.80;58.30;;;;;;5033591;28;20110;-71
2022/04/28 02:54:52;;;;;;;3.03;1.92;;;;;;;;;;5031909;28;20421;-71
2022/04/28 02:57:19;;;;;;;4.63;2.20;;;14.80;58.10;;;;;;5041411;28;20057;-71
2022/04/28 02:59:46;;;;;;;3.63;2.33;;;;;;;;;;5013607;28;20061;-71
2022/04/28 03:02:14;;;;;;;4.38;2.22;;;14.70;57.90;;;;;;5013719;28;20059;-71
2022/04/28 03:04:41;;;;;;;3.50;1.90;;;;;;;;;;5031244;28;20054;-71
2022/04/28 03:12:37;;;;;;;3.90;2.20;;;14.90;58.50;;;;;;5011478;28;20065;-71
2022/04/28 03:15:05;;;;;;;3.40;2.00;;;14.80;50.90;;;;;;4994055;28;20141;-71
2022/04/28 03:17:33;;;;;;;3.28;2.05;;;14.80;58.10;;;;;;4993761;28;20559;-71
2022/04/28 03:20:01;;;;;;;2.92;1.90;;;;;;;;;;5011636;28;20509;-71
2022/04/28 03:22:28;;;;;;;3.45;1.90;;;14.80;58.10;;;;;;4997520;28;20060;-71
2022/04/28 03:24:55;;;;;;;3.33;1.90;;;14.90;58.40;;;;;;4997601;28;20056;-71
2022/04/28 03:27:22;;;;;;;3.25;1.90;;;14.60;58.20;;;;;;5019320;28;20486;-71
2022/04/28 03:29:49;;;;;;;4.43;2.10;;;;;;;;;;5036721;28;20056;-71
2022/04/28 03:32:16;;;;;;;4.50;2.00;;;;;;;;;;5036787;28;20059;-71
2022/04/28 03:34:44;;;;;;;2.67;1.70;;;15.50;58.80;;;;;;5036647;28;20055;-71
2022/04/28 03:37:11;;;;;;;2.35;1.88;;;14.50;52.00;;;;;;5036658;28;20057;-71
2022/04/28 03:39:38;;;;;;;5.10;2.33;;;14.30;57.70;;;;;;5036502;28;20069;-71
2022/04/28 03:42:06;;;;;;;2.35;1.83;;;;;;;;;;5054391;28;20061;-71
2022/04/28 03:44:34;;;;;;;2.72;2.15;;;;;;;;;;5034425;28;20068;-71
2022/04/28 03:47:02;;;;;;;2.63;1.90;;;;;;;;;;5036651;28;20064;-71
2022/04/28 03:49:28;;;;;;;3.15;2.08;;;14.70;58.00;;;;;;5036389;28;20053;-71
2022/04/28 03:51:56;;;;;;;3.40;1.90;;;14.80;50.80;;;;;;5036422;28;20409;-71
2022/04/28 03:54:24;;;;;;;3.08;1.90;;;;;;;;;;5054110;28;20045;-71
2022/04/28 03:56:50;;;;;;;4.65;1.95;;;14.80;58.10;;;;;;5036208;28;20055;-71
2022/04/28 03:59:17;;;;;;;2.90;1.85;;;;;;;;;;5035800;28;20079;-71
2022/04/28 04:01:44;;;;;;;3.42;2.08;;;14.80;57.90;;;;;;5053615;28;20502;-70
2022/04/28 04:04:11;;;;;;;3.20;2.05;;;14.80;58.00;;;;;;5036344;28;20053;-71
2022/04/28 04:06:38;;;;;;;2.05;1.75;;;14.60;53.40;;;;;;5035589;28;20053;-71
2022/04/28 04:09:06;;;;;;;2.60;2.00;;;14.90;58.20;;;;;;5036280;28;20093;-71
2022/04/28 04:11:32;;;;;;;2.63;1.80;;;14.70;57.90;;;;;;5053536;28;20047;-71
2022/04/28 04:13:59;;;;;;;2.70;2.22;;;14.90;58.20;;;;;;5036150;28;20059;-71
2022/04/28 04:16:26;;;;;;;3.33;2.00;;;;;;;;;;5019922;28;20402;-71
2022/04/28 04:18:53;;;;;;;4.00;1.90;;;;;;;;;;5016039;28;20461;-71
2022/04/28 04:21:20;;;;;;;2.25;1.63;;;;;;;;;;5016001;28;20061;-71
2022/04/28 04:23:47;;;;;;;3.20;1.90;;;14.60;57.80;;;;;;5016062;28;20057;-71
2022/04/28 04:26:15;;;;;;;2.60;1.63;;;14.80;50.70;;;;;;5048831;28;20117;-71
2022/04/28 04:28:42;;;;;;;4.35;2.17;;;;;;;;;;5015859;28;20050;-71
2022/04/28 04:33:50;;;;;;;3.10;1.90;;;;;;;;;;5013180;28;20515;-71
2022/04/28 04:36:17;;;;;;;3.00;2.20;;;;;;;;;;5035688;28;20057;-71
2022/04/28 04:38:44;;;;;;;2.13;1.80;;;14.30;57.40;;;;;;5035326;28;20057;-71
2022/04/28 04:41:11;;;;;;;3.53;1.90;;;;;;;;;;5035379;28;20401;-71
2022/04/28 04:43:39;;;;;;;2.03;1.70;;;14.60;57.50;;;;;;5035626;28;20504;-71
2022/04/28 04:46:06;;;;;;;3.33;1.90;;;14.70;57.50;;;;;;5035134;28;20425;-71
2022/04/28 04:48:33;;;;;;;2.47;1.80;;;;;;;;;;5033394;28;20049;-71
2022/04/28 04:51:00;;;;;;;2.75;1.85;;;14.70;57.50;;;;;;5053095;28;20053;-71
2022/04/28 04:53:27;;;;;;;2.78;1.70;;;;;;;;;;5053012;28;20049;-71
2022/04/28 04:55:53;;;;;;;2.50;2.08;;;14.70;57.30;;;;;;5052845;28;20048;-71
2022/04/28 04:58:20;;;;;;;3.38;2.00;;;15.10;57.90;;;;;;5053002;28;20049;-71
2022/04/28 05:00:48;;;;;;;3.28;2.00;;;15.00;50.50;;;;;;5034924;28;20049;-71
2022/04/28 05:03:15;;;;;;;2.92;1.80;;;15.00;51.60;;;;;;5051249;28;20056;-71
2022/04/28 05:05:44;;;;;;;3.42;2.15;;;15.00;57.70;;;;;;5052514;28;20417;-71
2022/04/28 05:08:10;;;;;;;2.72;1.70;;;15.20;57.60;;;;;;5034842;28;20060;-71
2022/04/28 05:10:37;;;;;;;3.92;1.92;;;15.20;51.60;;;;;;5034796;28;20049;-71
2022/04/28 05:13:04;;;;;;;4.57;2.10;;;15.00;53.10;;;;;;5034980;28;20417;-71
2022/04/28 05:15:31;;;;;;;4.00;1.95;;;;;;;;;;5052438;28;20045;-71
2022/04/28 05:17:59;;;;;;;2.15;1.73;;;14.50;57.10;;;;;;5034835;28;20082;-71
2022/04/28 05:20:26;;;;;;;3.25;1.80;;;15.00;57.40;;;;;;5020522;28;20063;-71
2022/04/28 05:22:53;;;;;;;3.65;1.77;;;15.20;57.70;;;;;;5032668;28;20068;-71
2022/04/28 05:25:20;;;;;;;2.83;1.70;;;;;;;;;;5014726;28;20506;-71
2022/04/28 05:27:47;;;;;;;2.97;1.60;;;15.00;57.30;;;;;;5015043;28;20049;-72
2022/04/28 05:30:14;;;;;;;3.13;2.10;;;;;;;;;;5014361;28;20485;-72
2022/04/28 05:32:41;;;;;;;3.22;1.85;;;14.90;57.30;;;;;;5014752;28;20049;-72
2022/04/28 05:35:09;;;;;;;3.42;2.08;;;15.00;50.20;;;;;;5014498;28;20384;-71
2022/04/28 05:37:37;;;;;;;2.85;1.60;;;14.60;53.40;;;;;;5049979;28;20115;-71
2022/04/28 05:40:04;;;;;;;3.30;1.95;;;15.10;57.50;;;;;;5034276;28;20088;-72
2022/04/28 05:47:55;;;;;;;3.50;1.70;;;16.00;58.10;;;;;;5029565;28;20045;-70
2022/04/28 05:50:23;;;;;;;2.38;1.70;;;15.40;50.30;;;;;;5031901;28;20056;-71
2022/04/28 05:52:52;;;;;;;3.25;1.77;;;15.00;57.40;;;;;;5017312;28;20059;-70
2022/04/28 05:55:19;;;;;;;3.95;1.70;;;14.80;52.00;;;;;;5031785;28;20072;-70
2022/04/28 05:57:45;;;;;;;2.47;1.80;;;14.70;56.90;;;;;;5014214;28;20060;-70
2022/04/28 06:00:13;;;;;;;2.60;1.58;;;15.10;57.30;;;;;;5011154;28;20052;-70
2022/04/28 06:02:40;;;;;;;2.13;1.63;;;15.30;57.40;;;;;;5014103;28;20132;-70
2022/04/28 06:05:07;;;;;;;2.78;1.73;;;14.90;54.00;;;;;;5013905;28;20057;-70
2022/04/28 06:07:35;;;;;;;2.28;1.83;;;15.30;57.20;;;;;;5033353;28;20117;-71
2022/04/28 06:10:03;;;;;;;2.33;1.73;;;15.30;56.80;;;;;;5032482;28;20588;-70
2022/04/28 06:12:30;;;;;;;2.95;1.80;;;15.50;56.90;;;;;;5013916;28;20045;-70
2022/04/28 06:14:57;;;;;;;1.50;1.40;;;;;;;;;;5013781;28;20051;-70
2022/04/28 06:17:24;;;;;;;2.38;1.55;;;14.80;56.60;;;;;;5011951;28;20055;-70
2022/04/28 06:19:50;;;;;;;1.75;1.55;;;16.30;57.10;;;;;;5014508;28;20054;-70
2022/04/28 06:22:17;;;;;;;2.25;1.60;;;;;;;;;;5012193;28;20041;-70
2022/04/28 06:24:46;;;;;;;2.25;1.63;;;16.10;56.90;;;;;;5015304;28;20046;-70
2022/04/28 06:27:12;;;;;;;2.17;1.70;;;15.70;56.90;;;;;;5014076;28;20053;-70
2022/04/28 06:29:39;;;;;;;3.15;1.73;;;;;;;;;;5031614;28;20045;-70
2022/04/28 06:32:07;;;;;;;2.20;1.60;;;15.90;56.60;;;;;;5014105;28;20060;-70
2022/04/28 06:34:34;;;;;;;2.75;1.75;;;16.50;57.00;;;;;;5031930;28;20046;-70
2022/04/28 06:37:01;;;;;;;3.17;1.90;;;15.90;56.30;;;;;;5031933;28;20053;-70
2022/04/28 06:39:28;;;;;;;2.58;1.58;;;;;;;;;;5010447;28;20052;-71
2022/04/28 06:41:56;;;;;;;2.83;1.65;;;16.10;56.40;;;;;;5014929;28;20132;-71
2022/04/28 06:44:22;;;;;;;1.90;1.40;;;16.10;56.30;;;;;;5030622;28;20403;-71
2022/04/28 06:46:49;;;;;;;3.13;1.80;;;16.30;56.00;;;;;;5031585;28;20041;-71
2022/04/28 06:49:16;;;;;;;2.63;1.60;;;16.40;55.50;;;;;;5014072;28;20061;-72
2022/04/28 06:51:43;;;;;;;4.05;1.52;;;16.80;56.20;;;;;;5013983;28;20057;-70
2022/04/28 06:54:10;;;;;;;6.30;1.85;;;;;;;;;;5031357;28;20049;-71
2022/04/28 06:56:37;;;;;;;2.40;1.73;;;17.10;56.00;;;;;;5020341;28;20125;-71
2022/04/28 06:59:06;;;;;;;2.30;1.63;;;16.70;55.60;;;;;;5037927;28;20057;-71
2022/04/28 07:01:33;;;;;;;3.45;1.45;;;16.60;55.60;;;;;;5055106;28;20083;-71
2022/04/28 07:03:59;;;;;;;3.40;1.52;;;16.80;55.60;;;;;;5037193;28;20055;-71
2022/04/28 07:06:26;;;;;;;2.47;1.58;;;;;;;;;;5037208;28;20052;-71
2022/04/28 07:08:53;;;;;;;3.17;1.40;;;17.10;55.30;;;;;;5055090;28;20049;-71
2022/04/28 07:11:20;;;;;;;3.58;1.70;;;17.10;55.20;;;;;;5037366;28;20057;-71
2022/04/28 07:13:46;;;;;;;2.85;1.45;;;17.10;52.30;;;;;;5029774;28;20045;-71
2022/04/28 07:16:14;;;;;;;3.85;1.67;;;16.90;54.80;;;;;;5050520;28;20475;-71
2022/04/28 07:18:41;;;;;;;3.13;1.50;;;17.00;54.80;;;;;;5034965;28;20046;-71
2022/04/28 07:21:08;;;;;;;2.83;1.50;;;17.10;55.20;;;;;;4997780;28;20058;-71
2022/04/28 07:23:35;;;;;;;3.17;1.42;;;;;;;;;;5015122;28;20056;-71
2022/04/28 07:26:02;;;;;;;4.38;1.67;;;16.90;55.10;;;;;;4997678;28;20064;-71
2022/04/28 07:28:28;;;;;;;4.63;1.50;;;17.70;55.20;;;;;;4997873;28;20058;-71
2022/04/28 07:30:55;;;;;;;2.03;1.30;;;16.70;54.70;;;;;;4999057;28;20064;-71
2022/04/28 07:33:23;;;;;;;2.35;1.23;;;16.90;55.00;;;;;;5017183;28;20384;-71
2022/04/28 07:35:50;;;;;;;3.45;1.40;;;17.60;55.10;;;;;;5016888;28;20083;-71
2022/04/28 07:38:17;;;;;;;3.90;1.67;;;16.40;54.90;;;;;;5034865;28;20056;-71
2022/04/28 07:40:43;;;;;;;3.90;1.48;;;17.20;54.70;;;;;;5016584;28;20049;-71
2022/04/28 07:43:10;;;;;;;2.42;1.40;;;17.20;55.00;;;;;;5034712;28;20049;-71
2022/04/28 07:45:37;;;;;;;2.90;1.30;;;17.20;54.80;;;;;;5019917;28;20524;-71
2022/04/28 07:48:05;;;;;;;3.55;1.48;;;17.80;51.90;;;;;;5036215;28;20139;-71
2022/04/28 07:50:34;;;;;;;3.38;1.50;;;17.10;50.50;;;;;;5027750;28;20053;-72
2022/04/28 07:53:01;;;;;;;2.58;1.40;;;;;;;;;;5016449;28;20483;-72
2022/04/28 07:55:28;;;;;;;3.65;1.42;;;17.40;55.00;;;;;;5016431;28;20059;-71
2022/04/28 07:57:55;;;;;;;2.00;1.30;;;17.50;54.90;;;;;;5016453;28;20504;-71
2022/04/28 08:00:22;;;;;;;2.72;1.40;;;17.30;54.80;;;;;;5034177;28;20053;-71
2022/04/28 08:02:49;;;;;;;4.47;1.33;;;17.20;54.70;;;;;;5028046;28;20062;-71
2022/04/28 08:05:16;;;;;;;2.88;1.30;;;;;;;;;;5024636;28;20410;-70
2022/04/28 08:07:44;;;;;;;3.08;1.50;;;17.30;54.70;;;;;;5016101;28;20485;-71
2022/04/28 08:10:12;;;;;;;3.20;1.48;;;17.80;55.10;;;;;;5016306;28;20053;-71
2022/04/28 08:12:39;;;;;;;2.28;1.23;;;18.00;55.10;;;;;;5017483;28;20049;-71
2022/04/28 08:15:07;;;;;;;3.38;1.50;;;17.00;54.50;;;;;;5026886;28;20580;-72
2022/04/28 08:17:34;;;;;;;3.05;1.40;;;17.50;51.60;;;;;;5016491;28;20124;-71
2022/04/28 08:20:01;;;;;;;2.78;1.30;;;17.30;54.60;;;;;;5015685;28;20133;-71
2022/04/28 08:22:27;;;;;;;2.03;1.08;;;17.40;54.50;;;;;;5015857;28;20084;-71
2022/04/28 08:24:55;;;;;;;3.33;1.42;;;17.40;48.60;;;;;;5015362;28;20049;-71
2022/04/28 08:27:25;;;;;;;2.25;1.30;;;;;;;;;;5014201;28;20042;-71
2022/04/28 08:29:52;;;;;;;3.28;1.52;;;16.50;54.00;;;;;;5026904;28;20057;-72
2022/04/28 08:32:18;;;;;;;3.45;1.55;;;17.20;54.70;;;;;;5046994;28;20053;-71
2022/04/28 08:34:45;;;;;;;3.33;1.40;;;16.10;53.90;;;;;;5015943;28;20049;-71
2022/04/28 08:37:12;;;;;;;3.80;1.80;;;17.40;54.70;;;;;;5015865;28;20057;-71
2022/04/28 08:39:39;;;;;;;3.00;1.30;;;17.20;52.10;;;;;;5033387;28;20046;-71
2022/04/28 08:42:07;;;;;;;1.73;1.23;;;17.30;54.90;;;;;;5033634;28;20049;-72
2022/04/28 08:44:34;;;;;;;2.95;1.30;;;17.70;55.10;;;;;;5017340;28;20555;-71
2022/04/28 08:47:01;;;;;;;2.90;1.20;;;16.60;54.40;;;;;;5035376;28;20063;-71
2022/04/28 08:49:29;;;;;;;3.03;1.52;;;16.90;54.50;;;;;;5035359;28;20140;-72
2022/04/28 08:51:56;;;;;;;3.17;1.33;;;17.90;55.00;;;;;;5050938;28;20513;-71
2022/04/28 08:54:24;;;;;;;2.83;1.40;;;17.90;55.10;;;;;;5035078;28;20394;-71
2022/04/28 08:56:51;;;;;;;3.45;1.42;;;17.80;55.20;;;;;;5018845;28;20056;-71
2022/04/28 08:59:19;;;;;;;2.63;1.40;;;17.00;55.00;;;;;;5035217;28;20488;-71
2022/04/28 09:01:46;;;;;;;2.42;1.40;;;16.90;54.60;;;;;;5033603;28;20056;-71
2022/04/28 09:04:13;;;;;;;3.05;1.30;;;17.10;54.80;;;;;;5035388;28;20068;-71
2022/04/28 09:06:40;;;;;;;2.22;1.10;;;17.10;54.80;;;;;;5031487;28;20055;-71
2022/04/28 09:09:08;;;;;;;2.88;1.42;;;17.40;55.00;;;;;;5026720;28;20042;-71
2022/04/28 09:11:37;;;;;;;2.70;1.30;;;17.00;55.20;;;;;;5015124;28;20136;-71
2022/04/28 09:14:11;;;;;;;1.67;1.20;;;16.60;48.90;;;;;;5015076;28;20054;-71
2022/04/28 09:16:42;;;;;;;2.42;1.30;;;15.90;48.90;;;;;;5015046;28;20060;-71
2022/04/28 09:19:09;;;;;;;2.25;1.25;;;17.10;55.00;;;;;;5014747;28;20057;-71
2022/04/28 09:21:36;;;;;;;2.90;1.45;;;16.00;54.40;;;;;;5022948;28;20053;-70
2022/04/28 09:24:03;;;;;;;1.33;1.20;;;17.10;55.00;;;;;;5004507;28;20055;-71
2022/04/28 09:26:30;;;;;;;4.30;1.40;;;;;;;;;;5014731;28;20056;-71
2022/04/28 09:28:57;;;;;;;2.00;1.20;;;17.10;55.50;;;;;;5032480;28;20072;-71
2022/04/28 09:31:24;;;;;;;10.32;1.58;;;17.50;55.40;;;;;;5014913;28;20053;-71
2022/04/28 09:33:52;;;;;;;3.05;1.50;;;17.00;55.40;;;;;;5032755;28;20045;-71
2022/04/28 09:36:18;;;;;;;2.22;1.30;;;17.70;55.50;;;;;;5014778;28;20417;-71
2022/04/28 09:38:45;;;;;;;3.55;1.30;;;17.00;55.00;;;;;;5014968;28;20057;-71
2022/04/28 09:43:56;;;;;;;3.28;1.45;;;16.30;50.40;;;;;;5014549;28;20045;-71
2022/04/28 09:46:23;;;;;;;1.98;1.40;;;17.00;54.80;;;;;;4994893;28;20054;-71
2022/04/28 09:48:52;;;;;;;3.00;1.40;;;16.80;54.90;;;;;;4995159;28;20064;-71
2022/04/28 09:51:22;;;;;;;3.50;1.40;;;16.80;49.70;;;;;;5019836;28;20060;-71
2022/04/28 09:53:48;;;;;;;1.95;1.20;;;16.60;55.10;;;;;;5026666;28;20084;-71
2022/04/28 09:56:16;;;;;;;2.65;1.30;;;16.80;55.20;;;;;;5052161;28;20128;-71
2022/04/28 09:58:42;;;;;;;4.57;1.63;;;16.80;55.10;;;;;;5051979;28;20087;-71
2022/04/28 10:01:10;;;;;;;2.60;1.30;;;16.00;54.80;;;;;;5033928;28;20136;-72
2022/04/28 10:03:40;;;;;;;7.70;1.70;;;;;;;;;;5034211;28;20091;-71
2022/04/28 10:06:08;;;;;;;3.55;1.60;;;16.90;55.30;;;;;;5028355;28;20045;-72
2022/04/28 10:08:35;;;;;;;5.22;1.48;;;16.90;55.40;;;;;;5017658;28;20552;-72
2022/04/28 10:11:03;;;;;;;5.57;1.98;;;16.70;55.70;;;;;;5014283;28;20061;-72
2022/04/28 10:13:30;;;;;;;6.03;1.65;;;16.90;55.40;;;;;;5031912;28;20049;-72
2022/04/28 10:16:00;;;;;;;3.97;1.65;;;17.00;50.80;;;;;;5014479;28;20410;-71
2022/04/28 10:18:30;;;;;;;5.00;1.98;;;16.80;55.70;;;;;;5031895;28;20409;-72
2022/04/28 10:21:00;;;;;;;4.07;1.85;;;16.90;49.30;;;;;;5016355;28;20140;-72
2022/04/28 10:34:30;;;;;;;38.83;12.45;;;16.80;55.90;;;;;;5035656;28;20043;-72
2022/04/28 10:36:58;;;;;;;51.10;15.15;;;17.20;55.90;;;;;;5018374;28;20059;-72
2022/04/28 10:39:39;;;;;;;60.15;16.85;;;16.70;55.60;;;;;;5018128;28;20155;-72
2022/04/28 10:42:14;;;;;;;55.17;16.60;;;17.10;56.10;;;;;;5020702;28;20057;-71
2022/04/28 10:44:42;;;;;;;60.30;17.33;;;17.60;56.20;;;;;;5030965;28;20056;-71
2022/04/28 10:47:09;;;;;;;36.70;10.00;;;17.30;55.70;;;;;;5035490;28;20048;-72
2022/04/28 10:49:39;;;;;;;35.15;10.48;;;17.10;55.50;;;;;;5033562;28;20633;-72
2022/04/28 10:52:06;;;;;;;36.63;11.80;;;17.00;49.40;;;;;;5036053;28;20561;-72
2022/04/28 10:54:44;;;;;;;38.35;11.45;;;17.50;56.20;;;;;;5037939;28;20061;-72
2022/04/28 10:57:13;;;;;;;33.75;11.75;;;16.90;55.90;;;;;;5037278;28;20508;-71
2022/04/28 10:59:41;;;;;;;34.65;10.60;;;17.10;55.90;;;;;;5017779;28;20573;-70
2022/04/28 11:02:41;;;;;;;43.28;11.25;;;16.90;55.60;;;;;;5016090;28;20061;-70
2022/04/28 11:05:32;;;;;;;36.45;10.25;;;16.30;55.10;;;;;;5015289;28;20498;-71
2022/04/28 11:08:01;;;;;;;33.10;10.07;;;17.10;55.60;;;;;;5001203;28;20055;-71
2022/04/28 11:10:29;;;;;;;35.63;11.10;;;16.90;49.20;;;;;;5035691;28;20049;-71
2022/04/28 11:12:56;;;;;;;32.70;10.13;;;17.80;56.10;;;;;;5025463;28;20121;-71
2022/04/28 11:15:25;;;;;;;27.23;9.75;;;17.00;54.70;;;;;;5014657;28;20057;-71
2022/04/28 11:17:51;;;;;;;30.05;9.98;;;17.10;55.60;;;;;;5019872;28;20049;-71
2022/04/28 11:20:21;;;;;;;31.38;10.23;;;17.00;55.50;;;;;;5017642;28;20053;-71
2022/04/28 11:22:48;;;;;;;25.27;9.18;;;16.90;55.50;;;;;;5034142;28;20051;-71
2022/04/28 11:25:17;;;;;;;25.60;9.32;;;17.30;55.50;;;;;;5016904;28;20084;-71
2022/04/28 11:27:46;;;;;;;28.25;9.40;;;17.10;55.50;;;;;;5018063;28;20056;-71
2022/04/28 11:30:19;;;;;;;28.40;9.63;;;17.00;49.60;;;;;;5015394;28;20099;-71
2022/04/28 11:32:46;;;;;;;24.90;8.18;;;17.20;55.50;;;;;;5016935;28;20414;-71
2022/04/28 11:35:13;;;;;;;22.65;8.02;;;17.10;54.00;;;;;;5031932;28;20045;-71
2022/04/28 11:37:40;;;;;;;22.80;8.43;;;17.50;53.80;;;;;;5016791;28;20045;-71
2022/04/28 11:40:08;;;;;;;29.30;8.32;;;17.80;55.80;;;;;;5016852;28;20049;-71
2022/04/28 11:42:36;;;;;;;21.88;7.97;;;17.30;55.20;;;;;;5015908;28;20053;-71
2022/04/28 11:45:04;;;;;;;29.40;6.80;;;17.00;49.80;;;;;;5016783;28;20132;-70
2022/04/28 11:47:31;;;;;;;20.20;5.05;;;;;;;;;;5034416;28;20055;-70
2022/04/28 11:49:58;;;;;;;21.17;6.70;;;17.60;55.40;;;;;;5033090;28;20061;-70
2022/04/28 11:52:27;;;;;;;20.23;6.20;;;17.20;54.90;;;;;;5042280;28;20044;-72
2022/04/28 11:54:58;;;;;;;15.65;5.40;;;17.00;48.90;;;;;;5021174;28;20061;-71
2022/04/28 11:57:25;;;;;;;16.30;4.70;;;16.90;55.20;;;;;;5016527;28;20060;-71
2022/04/28 11:59:52;;;;;;;13.40;4.93;;;17.20;55.40;;;;;;5016465;28;20054;-71
2022/04/28 12:02:28;;;;;;;15.18;4.55;;;17.20;55.40;;;;;;5016732;28;20140;-72
2022/04/28 12:04:55;;;;;;;17.40;4.90;;;16.50;55.00;;;;;;5034298;28;20057;-72
2022/04/28 12:07:23;;;;;;;15.23;4.90;;;17.00;52.30;;;;;;5045957;28;20409;-71
2022/04/28 12:15:20;;;;;;;11.63;4.47;;;17.10;55.80;;;;;;5034064;28;20057;-72
2022/04/28 12:20:53;;;;;;;11.38;4.05;;;17.10;55.60;;;;;;5033817;28;20050;-72
2022/04/28 12:23:30;;;;;;;9.77;4.10;;;17.20;56.00;;;;;;5033582;28;20045;-72
2022/04/28 12:25:59;;;;;;;12.18;4.13;;;16.20;53.30;;;;;;5032835;28;20510;-72
2022/04/28 12:28:30;;;;;;;8.40;3.53;;;16.80;55.70;;;;;;5032437;28;20132;-73
2022/04/28 12:30:57;;;;;;;9.75;3.63;;;17.10;55.90;;;;;;5015684;28;20441;-72
2022/04/28 12:33:26;;;;;;;10.18;4.03;;;17.70;55.90;;;;;;5008286;28;20057;-72
2022/04/28 12:35:53;;;;;;;8.40;3.60;;;16.50;55.20;;;;;;5028732;28;20050;-72
2022/04/28 12:38:26;;;;;;;8.13;3.75;;;16.50;55.60;;;;;;5033845;28;20053;-72
2022/04/28 12:40:52;;;;;;;10.52;3.30;;;16.10;55.00;;;;;;5046979;28;20069;-71
2022/04/28 12:43:38;;;;;;;7.97;3.15;;;17.80;55.90;;;;;;5006630;28;20064;-73
2022/04/28 12:46:06;;;;;;;;;;;17.10;50.10;;;;;;4997629;28;20136;-72
2022/04/28 12:48:35;;;;;;;9.32;3.58;;;17.10;55.90;;;;;;5015784;28;19991;-72
2022/04/28 12:51:09;;;;;;;9.93;3.65;;;17.10;56.00;;;;;;5032555;28;20081;-72
2022/04/28 12:53:36;;;;;;;8.52;3.50;;;16.90;56.30;;;;;;5028664;28;20045;-72
2022/04/28 12:56:06;;;;;;;8.88;3.33;;;17.10;49.60;;;;;;5033243;28;20053;-73
2022/04/28 12:58:36;;;;;;;9.40;3.60;;;17.30;56.00;;;;;;5022735;28;20049;-72
2022/04/28 13:01:03;;;;;;;8.75;3.20;;;;;;;;;;5043511;28;20051;-71
2022/04/28 13:03:30;;;;;;;9.13;2.80;;;17.50;55.70;;;;;;5016113;28;20108;-72
2022/04/28 13:05:58;;;;;;;7.07;3.13;;;17.20;55.80;;;;;;5025793;28;20577;-71
2022/04/28 13:08:25;;;;;;;8.27;3.15;;;17.80;55.70;;;;;;5052175;28;20052;-72
2022/04/28 13:10:52;;;;;;;9.25;2.70;;;17.20;55.60;;;;;;5042676;28;20049;-72
2022/04/28 13:13:18;;;;;;;6.18;2.50;;;16.80;55.20;;;;;;5015347;28;20061;-72
2022/04/28 13:15:45;;;;;;;5.82;2.55;;;17.20;55.40;;;;;;5033125;28;20045;-72
2022/04/28 13:18:12;;;;;;;9.77;2.78;;;17.20;55.60;;;;;;5032549;28;20065;-72
2022/04/28 13:20:38;;;;;;;7.75;2.55;;;17.40;55.50;;;;;;5033391;28;20516;-72
2022/04/28 13:23:06;;;;;;;6.20;2.38;;;17.40;55.70;;;;;;5052326;28;20060;-72
2022/04/28 13:25:33;;;;;;;7.15;3.13;;;17.30;55.60;;;;;;5032495;28;20049;-72
2022/04/28 13:28:02;;;;;;;6.25;2.50;;;;;;;;;;5037917;28;20045;-71
2022/04/28 13:30:28;;;;;;;8.65;2.83;;;16.50;55.20;;;;;;5032734;28;20063;-72
2022/04/28 13:32:55;;;;;;;6.57;2.30;;;17.50;55.80;;;;;;5048887;28;20490;-72
2022/04/28 13:35:22;;;;;;;4.60;2.15;;;17.40;55.40;;;;;;5032248;28;20174;-72
2022/04/28 13:37:48;;;;;;;4.70;2.33;;;17.50;55.50;;;;;;5026608;28;20045;-72
2022/04/28 13:40:16;;;;;;;6.20;2.55;;;17.30;55.30;;;;;;5031266;28;20067;-71
2022/04/28 13:42:43;;;;;;;6.18;2.30;;;17.20;55.30;;;;;;5048427;28;20045;-72
2022/04/28 13:45:10;;;;;;;6.75;2.28;;;17.30;55.50;;;;;;5052090;28;20049;-73